createdAt,value
2023-03-12T00:01:13.900Z,98350.13
2023-03-12T00:03:47.197Z,98367.13
2023-03-12T00:06:21.922Z,98373.72
2023-03-12T00:08:56.339Z,98355.16
2023-03-12T00:11:30.832Z,98369.84
2023-03-12T00:14:04.391Z,98372.81
2023-03-12T00:16:37.710Z,98368.84
2023-03-12T00:19:12.747Z,98370.13
2023-03-12T00:21:45.748Z,98382.50
2023-03-12T00:24:18.686Z,98381.91
2023-03-12T00:26:53.022Z,98383.91
2023-03-12T00:29:25.900Z,98396.28
2023-03-12T00:31:58.901Z,98405.31
2023-03-12T00:34:32.102Z,98410.88
2023-03-12T00:37:05.056Z,98424.63
2023-03-12T00:39:38.152Z,98418.19
2023-03-12T00:42:13.015Z,98418.50
2023-03-12T00:44:46.170Z,98414.25
2023-03-12T00:47:19.190Z,98419.06
2023-03-12T00:49:52.456Z,98414.50
2023-03-12T00:52:25.729Z,98404.31
2023-03-12T00:54:59.002Z,98393.91
2023-03-12T00:57:33.321Z,98388.22
2023-03-12T01:00:09.961Z,98373.66
2023-03-12T01:02:43.057Z,98391.56
2023-03-12T01:05:16.645Z,98394.00
2023-03-12T01:07:49.821Z,98416.03
2023-03-12T01:10:23.223Z,98417.66
2023-03-12T01:12:59.708Z,98435.97
2023-03-12T01:15:33.254Z,98443.59
2023-03-12T01:18:06.714Z,98449.56
2023-03-12T01:20:47.154Z,98445.13
2023-03-12T01:23:20.189Z,98466.94
2023-03-12T01:25:55.549Z,98474.38
2023-03-12T01:28:29.817Z,98486.41
2023-03-12T01:31:07.388Z,98481.56
2023-03-12T01:33:40.618Z,98492.59
2023-03-12T01:36:17.664Z,98501.38
2023-03-12T01:38:51.564Z,98519.97
2023-03-12T01:41:25.198Z,98523.47
2023-03-12T01:44:01.740Z,98529.78
2023-03-12T01:46:35.484Z,98532.00
2023-03-12T01:49:10.315Z,98531.31
2023-03-12T01:51:44.562Z,98535.81
2023-03-12T01:54:19.875Z,98525.06
2023-03-12T01:56:53.663Z,98527.00
2023-03-12T01:59:31.338Z,98528.41
2023-03-12T02:02:04.969Z,98523.94
2023-03-12T02:04:38.794Z,98507.34
2023-03-12T02:07:13.226Z,98514.28
2023-03-12T02:09:49.413Z,98527.03
2023-03-12T02:12:22.698Z,98532.44
2023-03-12T02:14:57.679Z,98530.06
2023-03-12T02:17:31.200Z,98524.94
2023-03-12T02:20:11.095Z,98545.47
2023-03-12T02:22:48.263Z,98553.28
2023-03-12T02:25:31.324Z,98561.94
2023-03-12T02:28:06.166Z,98571.44
2023-03-12T02:30:41.206Z,98571.00
2023-03-12T02:33:15.316Z,98565.44
2023-03-12T02:35:48.807Z,98572.28
2023-03-12T02:38:39.352Z,98578.28
2023-03-12T02:41:17.688Z,98560.69
2023-03-12T02:43:51.398Z,98574.03
2023-03-12T02:46:24.559Z,98582.31
2023-03-12T02:48:57.884Z,98584.13
2023-03-12T02:51:31.469Z,98580.50
2023-03-12T02:54:04.926Z,98577.38
2023-03-12T02:56:39.469Z,98584.09
2023-03-12T02:59:13.282Z,98574.41
2023-03-12T03:01:46.288Z,98588.09
2023-03-12T03:04:19.684Z,98601.53
2023-03-12T03:06:53.611Z,98603.94
2023-03-12T03:09:26.532Z,98619.97
2023-03-12T03:12:01.998Z,98610.06
2023-03-12T03:14:35.249Z,98614.81
2023-03-12T03:17:08.659Z,98621.03
2023-03-12T03:19:41.815Z,98636.81
2023-03-12T03:22:15.173Z,98640.44
2023-03-12T03:24:48.501Z,98644.59
2023-03-12T03:27:22.861Z,98658.81
2023-03-12T03:29:55.901Z,98671.44
2023-03-12T03:32:28.938Z,98683.03
2023-03-12T03:35:02.103Z,98686.25
2023-03-12T03:37:35.244Z,98680.53
2023-03-12T03:40:11.771Z,98684.69
2023-03-12T03:42:46.072Z,98680.47
2023-03-12T03:45:20.550Z,98681.47
2023-03-12T03:47:53.605Z,98680.06
2023-03-12T03:50:26.873Z,98693.19
2023-03-12T03:53:00.544Z,98714.66
2023-03-12T03:55:33.459Z,98714.16
2023-03-12T03:58:08.133Z,98715.59
2023-03-12T04:00:41.276Z,98728.00
2023-03-12T04:03:14.477Z,98737.28
2023-03-12T04:05:48.285Z,98738.22
2023-03-12T04:08:21.243Z,98741.84
2023-03-12T04:10:54.288Z,98741.72
2023-03-12T04:13:29.829Z,98744.22
2023-03-12T04:16:03.498Z,98745.28
2023-03-12T04:18:37.182Z,98749.47
2023-03-12T04:21:11.022Z,98744.88
2023-03-12T04:23:43.970Z,98748.28
2023-03-12T04:26:17.464Z,98755.75
2023-03-12T04:28:52.039Z,98752.72
2023-03-12T04:31:24.978Z,98760.66
2023-03-12T04:33:58.339Z,98754.31
2023-03-12T04:36:31.678Z,98759.38
2023-03-12T04:39:07.225Z,98754.56
2023-03-12T04:41:40.268Z,98751.09
2023-03-12T04:44:14.884Z,98756.25
2023-03-12T04:46:47.917Z,98761.44
2023-03-12T04:49:21.366Z,98767.59
2023-03-12T04:51:54.248Z,98773.59
2023-03-12T04:54:27.046Z,98773.34
2023-03-12T04:56:59.936Z,98782.63
2023-03-12T04:59:34.250Z,98782.59
2023-03-12T05:02:07.138Z,98783.41
2023-03-12T05:04:40.398Z,98791.88
2023-03-12T05:07:13.375Z,98784.00
2023-03-12T05:09:46.418Z,98804.28
2023-03-12T05:12:19.965Z,98811.25
2023-03-12T05:14:55.125Z,98801.00
2023-03-12T05:17:28.649Z,98805.25
2023-03-12T05:20:02.104Z,98820.53
2023-03-12T05:22:35.112Z,98821.22
2023-03-12T05:25:08.862Z,98835.00
2023-03-12T05:27:41.740Z,98843.97
2023-03-12T05:30:16.497Z,98834.69
2023-03-12T05:32:49.930Z,98838.75
2023-03-12T05:35:23.358Z,98844.66
2023-03-12T05:37:56.403Z,98835.31
2023-03-12T05:40:29.486Z,98838.25
2023-03-12T05:43:02.499Z,98831.63
2023-03-12T05:45:37.188Z,98846.41
2023-03-12T05:48:10.209Z,98854.09
2023-03-12T05:50:43.605Z,98860.97
2023-03-12T05:53:16.518Z,98873.66
2023-03-12T05:55:49.654Z,98872.63
2023-03-12T05:58:22.781Z,98889.41
2023-03-12T06:00:59.198Z,98907.09
2023-03-12T06:03:32.160Z,98923.81
2023-03-12T06:06:05.713Z,98921.97
2023-03-12T06:08:38.661Z,98923.28
2023-03-12T06:11:11.897Z,98928.00
2023-03-12T06:13:45.159Z,98934.88
2023-03-12T06:16:21.623Z,98940.66
2023-03-12T06:18:54.921Z,98941.22
2023-03-12T06:21:29.279Z,98944.00
2023-03-12T06:24:02.251Z,98948.94
2023-03-12T06:26:35.348Z,98952.88
2023-03-12T06:29:08.244Z,98955.09
2023-03-12T06:31:44.134Z,98957.75
2023-03-12T06:34:17.955Z,98963.22
2023-03-12T06:36:51.202Z,98959.00
2023-03-12T06:39:24.448Z,98959.00
2023-03-12T06:41:57.542Z,98972.09
2023-03-12T06:44:30.563Z,98976.94
2023-03-12T06:47:04.934Z,98968.53
2023-03-12T06:49:38.952Z,98986.94
2023-03-12T06:52:12.138Z,98977.06
2023-03-12T06:54:45.126Z,98972.88
2023-03-12T06:57:18.101Z,98970.56
2023-03-12T06:59:51.657Z,98971.19
2023-03-12T07:02:25.894Z,98980.06
2023-03-12T07:04:59.185Z,98979.69
2023-03-12T07:07:32.443Z,98995.75
2023-03-12T07:10:06.654Z,98996.19
2023-03-12T07:12:40.948Z,99000.22
2023-03-12T07:15:14.462Z,99007.22
2023-03-12T07:17:49.462Z,99022.84
2023-03-12T07:20:22.586Z,99039.03
2023-03-12T07:22:55.761Z,99027.41
2023-03-12T07:25:29.042Z,99038.41
2023-03-12T07:28:02.179Z,99032.28
2023-03-12T07:30:35.630Z,99047.81
2023-03-12T07:33:12.650Z,99037.78
2023-03-12T07:35:49.193Z,99046.28
2023-03-12T07:38:23.137Z,99044.63
2023-03-12T07:40:57.155Z,99047.16
2023-03-12T07:43:30.239Z,99041.72
2023-03-12T07:46:06.828Z,99043.63
2023-03-12T07:48:44.137Z,99049.47
2023-03-12T07:51:17.481Z,99054.41
2023-03-12T07:53:50.552Z,99059.16
2023-03-12T07:56:23.560Z,99070.50
2023-03-12T07:58:56.792Z,99069.06
2023-03-12T08:01:32.285Z,99070.63
2023-03-12T08:04:07.276Z,99065.84
2023-03-12T08:06:42.873Z,99049.50
2023-03-12T08:09:15.858Z,99062.66
2023-03-12T08:11:52.725Z,99054.09
2023-03-12T08:14:26.754Z,99051.75
2023-03-12T08:17:01.300Z,99072.09
2023-03-12T08:19:36.015Z,99068.59
2023-03-12T08:22:09.764Z,99087.75
2023-03-12T08:24:42.916Z,99099.53
2023-03-12T08:27:15.920Z,99102.56
2023-03-12T08:29:49.070Z,99105.00
2023-03-12T08:32:22.732Z,99109.03
2023-03-12T08:34:57.731Z,99108.25
2023-03-12T08:37:30.807Z,99107.06
2023-03-12T08:40:05.686Z,99097.22
2023-03-12T08:42:38.840Z,99100.31
2023-03-12T08:45:13.229Z,99093.84
2023-03-12T08:47:46.985Z,99106.00
2023-03-12T08:50:22.757Z,99100.81
2023-03-12T08:52:55.728Z,99108.88
2023-03-12T08:55:29.081Z,99104.34
2023-03-12T08:58:02.144Z,99094.59
2023-03-12T09:00:35.486Z,99092.78
2023-03-12T09:03:08.699Z,99114.38
2023-03-12T09:05:43.161Z,99117.84
2023-03-12T09:08:16.531Z,99117.56
2023-03-12T09:10:50.214Z,99114.09
2023-03-12T09:13:26.124Z,99115.25
2023-03-12T09:16:01.951Z,99114.06
2023-03-12T09:18:35.568Z,99109.44
2023-03-12T09:21:10.085Z,99101.63
2023-03-12T09:23:43.018Z,99102.88
2023-03-12T09:26:16.133Z,99115.03
2023-03-12T09:28:50.259Z,99110.69
2023-03-12T09:31:23.524Z,99112.28
2023-03-12T09:33:56.608Z,99136.09
2023-03-12T09:36:30.918Z,99130.50
2023-03-12T09:39:04.322Z,99135.00
2023-03-12T09:41:40.003Z,99126.03
2023-03-12T09:44:18.049Z,99120.16
2023-03-12T09:46:53.041Z,99120.16
2023-03-12T09:49:31.885Z,99122.00
2023-03-12T09:52:14.381Z,99132.34
2023-03-12T09:54:53.484Z,99129.00
2023-03-12T09:57:27.734Z,99132.75
2023-03-12T10:00:01.330Z,99131.66
2023-03-12T10:02:52.167Z,99139.94
2023-03-12T10:05:27.835Z,99128.28
2023-03-12T10:08:23.058Z,99141.47
2023-03-12T10:10:59.706Z,99137.09
2023-03-12T10:13:43.620Z,99143.41
2023-03-12T10:16:26.945Z,99133.19
2023-03-12T10:19:16.314Z,99141.31
2023-03-12T10:21:52.803Z,99144.97
2023-03-12T10:24:32.405Z,99139.22
2023-03-12T10:27:10.320Z,99143.28
2023-03-12T10:29:45.676Z,99149.44
2023-03-12T10:32:20.933Z,99143.16
2023-03-12T10:34:56.198Z,99140.34
2023-03-12T10:37:30.568Z,99132.16
2023-03-12T10:40:06.071Z,99137.78
2023-03-12T10:42:40.457Z,99138.75
2023-03-12T10:45:21.974Z,99142.84
2023-03-12T10:47:57.441Z,99145.66
2023-03-12T10:50:31.714Z,99148.00
2023-03-12T10:53:15.193Z,99147.03
2023-03-12T10:56:00.690Z,99140.28
2023-03-12T10:58:35.490Z,99134.81
2023-03-12T11:01:20.593Z,99135.72
2023-03-12T11:03:54.248Z,99140.16
2023-03-12T11:06:28.793Z,99132.84
2023-03-12T11:09:16.820Z,99133.78
2023-03-12T11:11:52.648Z,99138.16
2023-03-12T11:14:27.025Z,99133.13
2023-03-12T11:17:20.149Z,99134.66
2023-03-12T11:19:53.240Z,99132.41
2023-03-12T11:22:31.259Z,99132.84
2023-03-12T11:25:06.081Z,99132.56
2023-03-12T11:27:42.438Z,99126.25
2023-03-12T11:30:17.097Z,99126.53
2023-03-12T11:32:50.889Z,99120.03
2023-03-12T11:35:31.055Z,99129.84
2023-03-12T11:38:07.592Z,99124.81
2023-03-12T11:40:50.984Z,99114.56
2023-03-12T11:43:43.182Z,99111.31
2023-03-12T11:46:27.939Z,99116.25
2023-03-12T11:49:09.047Z,99117.16
2023-03-12T11:51:47.666Z,99120.00
2023-03-12T11:54:38.331Z,99117.69
2023-03-12T11:57:15.860Z,99110.97
2023-03-12T11:59:58.043Z,99117.06
2023-03-12T12:02:41.908Z,99118.28
2023-03-12T12:05:23.735Z,99122.94
2023-03-12T12:08:02.408Z,99123.59
2023-03-12T12:10:40.765Z,99122.31
2023-03-12T12:13:19.438Z,99110.53
2023-03-12T12:15:58.948Z,99122.16
2023-03-12T12:18:43.023Z,99126.78
2023-03-12T12:21:23.836Z,99123.16
2023-03-12T12:24:10.995Z,99124.03
2023-03-12T12:26:48.051Z,99121.50
2023-03-12T12:29:27.039Z,99128.09
2023-03-12T12:32:03.286Z,99130.31
2023-03-12T12:34:47.265Z,99127.47
2023-03-12T12:37:24.077Z,99128.16
2023-03-12T12:40:01.324Z,99137.38
2023-03-12T12:42:35.509Z,99137.09
2023-03-12T12:45:14.657Z,99135.34
2023-03-12T12:47:51.300Z,99144.06
2023-03-12T12:50:27.082Z,99141.69
2023-03-12T12:53:04.467Z,99150.31
2023-03-12T12:55:40.473Z,99146.97
2023-03-12T12:58:15.001Z,99145.19
2023-03-12T13:00:49.969Z,99151.81
2023-03-12T13:03:25.497Z,99145.59
2023-03-12T13:05:59.531Z,99149.78
2023-03-12T13:08:38.119Z,99148.75
2023-03-12T13:11:24.892Z,99164.94
2023-03-12T13:14:15.699Z,99152.19
2023-03-12T13:16:49.636Z,99158.59
2023-03-12T13:19:25.751Z,99164.16
2023-03-12T13:22:05.099Z,99158.59
2023-03-12T13:24:44.493Z,99159.63
2023-03-12T13:27:19.999Z,99159.53
2023-03-12T13:29:57.103Z,99165.31
2023-03-12T13:33:01.425Z,99170.50
2023-03-12T13:35:37.903Z,99174.63
2023-03-12T13:38:13.327Z,99177.88
2023-03-12T13:41:00.941Z,99182.13
2023-03-12T13:43:49.798Z,99181.50
2023-03-12T13:46:29.897Z,99184.41
2023-03-12T13:49:06.281Z,99187.72
2023-03-12T13:51:46.472Z,99187.38
2023-03-12T13:54:20.350Z,99187.53
2023-03-12T13:56:58.654Z,99200.28
2023-03-12T13:59:33.124Z,99184.03
2023-03-12T14:02:13.284Z,99193.88
2023-03-12T14:04:46.700Z,99209.91
2023-03-12T14:07:41.170Z,99216.06
2023-03-12T14:10:20.808Z,99200.59
2023-03-12T14:12:58.228Z,99212.38
2023-03-12T14:15:34.611Z,99211.97
2023-03-12T14:18:13.788Z,99209.97
2023-03-12T14:20:52.012Z,99211.16
2023-03-12T14:23:28.858Z,99211.19
2023-03-12T14:26:04.243Z,99220.16
2023-03-12T14:28:41.287Z,99211.75
2023-03-12T14:31:15.519Z,99212.72
2023-03-12T14:33:51.928Z,99214.41
2023-03-12T14:36:27.166Z,99230.22
2023-03-12T14:39:10.165Z,99230.41
2023-03-12T14:41:46.361Z,99230.41
2023-03-12T14:44:22.877Z,99233.34
2023-03-12T14:46:58.227Z,99239.94
2023-03-12T14:49:32.379Z,99245.72
2023-03-12T14:52:05.770Z,99245.47
2023-03-12T14:54:40.212Z,99244.16
2023-03-12T14:57:15.578Z,99246.97
2023-03-12T14:59:53.629Z,99246.69
2023-03-12T15:02:27.496Z,99250.22
2023-03-12T15:05:02.820Z,99252.41
2023-03-12T15:07:38.742Z,99257.50
2023-03-12T15:10:20.487Z,99259.03
2023-03-12T15:12:56.229Z,99268.72
2023-03-12T15:15:37.464Z,99272.25
2023-03-12T15:18:14.495Z,99272.53
2023-03-12T15:20:48.283Z,99278.84
2023-03-12T15:23:23.144Z,99281.25
2023-03-12T15:26:14.622Z,99286.53
2023-03-12T15:28:56.078Z,99291.88
2023-03-12T15:31:29.446Z,99297.50
2023-03-12T15:34:03.927Z,99299.47
2023-03-12T15:36:37.411Z,99307.00
2023-03-12T15:39:21.000Z,99309.66
2023-03-12T15:41:58.998Z,99315.97
2023-03-12T15:44:37.390Z,99322.66
2023-03-12T15:47:12.484Z,99328.97
2023-03-12T15:49:52.868Z,99337.34
2023-03-12T15:52:29.482Z,99342.06
2023-03-12T15:55:07.526Z,99342.47
2023-03-12T15:57:47.797Z,99348.09
2023-03-12T16:00:23.582Z,99354.78
2023-03-12T16:02:57.989Z,99352.94
2023-03-12T16:05:33.133Z,99365.59
2023-03-12T16:08:13.896Z,99374.31
2023-03-12T16:10:47.807Z,99380.53
2023-03-12T16:13:26.548Z,99391.16
2023-03-12T16:16:00.919Z,99391.00
2023-03-12T16:18:34.121Z,99403.97
2023-03-12T16:21:07.459Z,99407.00
2023-03-12T16:23:40.464Z,99403.44
2023-03-12T16:26:14.346Z,99408.84
2023-03-12T16:28:49.475Z,99415.09
2023-03-12T16:31:22.837Z,99418.53
2023-03-12T16:33:55.780Z,99422.06
2023-03-12T16:36:29.209Z,99428.34
2023-03-12T16:39:02.581Z,99441.94
2023-03-12T16:41:35.556Z,99444.72
2023-03-12T16:44:14.019Z,99447.78
2023-03-12T16:46:47.039Z,99458.41
2023-03-12T16:49:21.091Z,99463.00
2023-03-12T16:51:54.367Z,99470.28
2023-03-12T16:54:27.298Z,99470.03
2023-03-12T16:57:00.952Z,99478.47
2023-03-12T16:59:38.154Z,99490.31
2023-03-12T17:02:16.284Z,99489.13
2023-03-12T17:04:51.098Z,99503.38
2023-03-12T17:07:24.003Z,99501.44
2023-03-12T17:09:57.396Z,99517.06
2023-03-12T17:12:32.832Z,99522.94
2023-03-12T17:15:09.662Z,99525.88
2023-03-12T17:17:43.252Z,99528.06
2023-03-12T17:20:17.638Z,99542.16
2023-03-12T17:22:50.705Z,99549.31
2023-03-12T17:25:24.975Z,99549.31
2023-03-12T17:27:58.381Z,99560.28
2023-03-12T17:30:40.819Z,99565.94
2023-03-12T17:33:15.713Z,99578.13
2023-03-12T17:35:56.932Z,99585.84
2023-03-12T17:38:30.356Z,99589.16
2023-03-12T17:41:09.388Z,99593.16
2023-03-12T17:43:44.591Z,99594.81
2023-03-12T17:46:19.222Z,99602.69
2023-03-12T17:54:49.955Z,99622.84
2023-03-12T17:57:25.063Z,99621.13
2023-03-12T17:59:58.459Z,99620.53
2023-03-12T18:02:34.514Z,99626.34
2023-03-12T18:05:08.508Z,99629.22
2023-03-12T18:07:42.602Z,99635.25
2023-03-12T18:10:16.525Z,99640.69
2023-03-12T18:12:50.177Z,99644.41
2023-03-12T18:15:27.986Z,99649.16
2023-03-12T18:18:02.626Z,99657.00
2023-03-12T18:20:39.665Z,99660.75
2023-03-12T18:23:13.156Z,99669.31
2023-03-12T18:25:51.488Z,99675.34
2023-03-12T18:28:26.728Z,99677.56
2023-03-12T18:31:00.258Z,99680.41
2023-03-12T18:33:36.655Z,99682.22
2023-03-12T18:36:10.305Z,99683.31
2023-03-12T18:38:47.099Z,99693.63
2023-03-12T18:41:22.575Z,99699.75
2023-03-12T18:43:55.906Z,99706.75
2023-03-12T18:46:29.695Z,99708.28
2023-03-12T18:49:07.663Z,99711.06
2023-03-12T18:51:41.133Z,99704.50
2023-03-12T18:54:14.813Z,99713.00
2023-03-12T18:56:48.055Z,99714.00
2023-03-12T18:59:21.441Z,99715.69
2023-03-12T19:01:54.815Z,99716.13
2023-03-12T19:04:29.700Z,99720.09
2023-03-12T19:07:03.335Z,99723.22
2023-03-12T19:09:36.616Z,99721.22
2023-03-12T19:12:10.313Z,99726.66
2023-03-12T19:14:44.236Z,99732.41
2023-03-12T19:17:18.430Z,99731.69
2023-03-12T19:19:53.700Z,99735.03
2023-03-12T19:22:27.063Z,99740.56
2023-03-12T19:25:00.173Z,99739.28
2023-03-12T19:27:33.341Z,99742.94
2023-03-12T19:30:07.434Z,99750.06
2023-03-12T19:32:44.252Z,99748.97
2023-03-12T19:35:19.827Z,99749.13
2023-03-12T19:37:53.114Z,99758.75
2023-03-12T19:40:26.473Z,99762.38
2023-03-12T19:42:59.562Z,99767.97
2023-03-12T19:45:32.946Z,99775.44
2023-03-12T19:48:06.290Z,99777.31
2023-03-12T19:50:41.032Z,99783.63
2023-03-12T19:53:14.439Z,99785.06
2023-03-12T19:55:48.043Z,99792.47
2023-03-12T19:58:21.255Z,99794.91
2023-03-12T20:00:54.514Z,99793.88
2023-03-12T20:03:28.464Z,99791.53
2023-03-12T20:06:03.395Z,99801.81
2023-03-12T20:08:36.564Z,99798.91
2023-03-12T20:11:11.103Z,99804.34
2023-03-12T20:13:44.469Z,99809.56
2023-03-12T20:16:19.080Z,99817.00
2023-03-12T20:18:53.048Z,99814.88
2023-03-12T20:21:29.508Z,99813.50
2023-03-12T20:24:03.464Z,99824.47
2023-03-12T20:26:39.559Z,99824.75
2023-03-12T20:29:12.632Z,99826.91
2023-03-12T20:31:46.030Z,99831.31
2023-03-12T20:34:19.604Z,99831.59
2023-03-12T20:36:54.187Z,99828.56
2023-03-12T20:39:27.352Z,99833.34
2023-03-12T20:42:00.617Z,99833.00
2023-03-12T20:44:33.713Z,99846.09
2023-03-12T20:47:07.133Z,99844.50
2023-03-12T20:49:40.740Z,99839.44
2023-03-12T20:52:15.137Z,99846.47
2023-03-12T20:54:48.465Z,99842.97
2023-03-12T20:57:21.920Z,99840.63
2023-03-12T20:59:55.193Z,99842.38
2023-03-12T21:02:28.497Z,99857.38
2023-03-12T21:05:01.890Z,99853.25
2023-03-12T21:07:36.471Z,99850.69
2023-03-12T21:10:10.236Z,99851.34
2023-03-12T21:12:43.884Z,99850.91
2023-03-12T21:15:17.262Z,99856.53
2023-03-12T21:17:50.730Z,99855.97
2023-03-12T21:20:23.941Z,99853.41
2023-03-12T21:22:58.639Z,99844.09
2023-03-12T21:25:33.490Z,99852.84
2023-03-12T21:28:07.206Z,99849.88
2023-03-12T21:30:40.295Z,99852.31
2023-03-12T21:33:13.635Z,99850.38
2023-03-12T21:35:47.201Z,99850.59
2023-03-12T21:38:21.792Z,99845.00
2023-03-12T21:40:57.484Z,99856.78
2023-03-12T21:43:30.575Z,99855.53
2023-03-12T21:46:04.798Z,99857.06
2023-03-12T21:48:38.930Z,99858.16
2023-03-12T21:51:12.708Z,99857.50
2023-03-12T21:53:47.068Z,99853.47
2023-03-12T21:56:20.263Z,99858.47
2023-03-12T21:58:53.469Z,99862.44
2023-03-12T22:01:26.884Z,99861.25
2023-03-12T22:04:02.506Z,99866.44
2023-03-12T22:06:35.674Z,99869.88
2023-03-12T22:09:09.994Z,99873.06
2023-03-12T22:11:43.076Z,99875.41
2023-03-12T22:14:16.341Z,99879.53
2023-03-12T22:16:49.961Z,99873.28
2023-03-12T22:19:24.401Z,99885.13
2023-03-12T22:21:58.402Z,99878.38
2023-03-12T22:24:34.033Z,99882.31
2023-03-12T22:27:07.568Z,99888.00
2023-03-12T22:29:40.494Z,99882.81
2023-03-12T22:32:13.836Z,99883.25
2023-03-12T22:34:46.844Z,99878.56
2023-03-12T22:37:19.852Z,99888.34
2023-03-12T22:39:58.268Z,99885.56
2023-03-12T22:42:31.408Z,99881.63
2023-03-12T22:45:05.019Z,99882.91
2023-03-12T22:47:38.565Z,99883.63
2023-03-12T22:50:12.222Z,99879.59
2023-03-12T22:52:45.160Z,99887.06
2023-03-12T22:55:19.482Z,99887.84
2023-03-12T22:57:52.504Z,99893.00
2023-03-12T23:00:26.699Z,99893.22
2023-03-12T23:03:00.060Z,99895.59
2023-03-12T23:05:33.018Z,99903.34
2023-03-12T23:08:06.421Z,99912.03
2023-03-12T23:10:40.690Z,99915.22
2023-03-12T23:13:14.388Z,99903.84
2023-03-12T23:15:48.177Z,99911.41
2023-03-12T23:18:21.757Z,99902.78
2023-03-12T23:20:58.578Z,99907.91
2023-03-12T23:23:31.777Z,99910.88
2023-03-12T23:26:06.343Z,99915.13
2023-03-12T23:28:39.422Z,99914.38
2023-03-12T23:31:12.712Z,99909.06
2023-03-12T23:33:46.049Z,99909.59
2023-03-12T23:36:20.058Z,99915.75
2023-03-12T23:38:53.752Z,99918.41
2023-03-12T23:41:30.422Z,99921.47
2023-03-12T23:44:03.433Z,99921.88
2023-03-12T23:46:36.704Z,99925.28
2023-03-12T23:49:09.607Z,99922.38
2023-03-12T23:51:42.597Z,99923.66
2023-03-12T23:54:16.362Z,99920.56
2023-03-12T23:56:50.618Z,99919.50
2023-03-12T23:59:23.660Z,99915.44
